createdAt,value
2019-03-31T00:02:18.465Z,63.53
2019-03-31T00:04:47.101Z,46.40
2019-03-31T00:07:15.767Z,50.73
2019-03-31T00:09:44.320Z,49.53
2019-03-31T00:12:13.111Z,54.97
2019-03-31T00:14:41.645Z,85.93
2019-03-31T00:17:10.273Z,54.03
2019-03-31T00:19:38.862Z,58.17
2019-03-31T00:22:07.434Z,62.13
2019-03-31T00:24:36.022Z,60.70
2019-03-31T00:27:04.762Z,53.03
2019-03-31T00:29:33.363Z,61.00
2019-03-31T00:32:02.275Z,59.73
2019-03-31T00:34:30.894Z,61.93
2019-03-31T00:36:59.466Z,68.53
2019-03-31T00:39:28.075Z,67.80
2019-03-31T00:41:56.645Z,59.87
2019-03-31T00:44:25.451Z,64.43
2019-03-31T00:46:54.577Z,67.67
2019-03-31T00:49:23.364Z,68.43
2019-03-31T00:51:51.959Z,66.87
2019-03-31T00:54:20.620Z,70.17
2019-03-31T00:56:49.286Z,67.77
2019-03-31T00:59:17.860Z,72.30
2019-03-31T01:01:50.930Z,72.43
2019-03-31T01:04:21.104Z,71.87
2019-03-31T01:06:52.375Z,75.97
2019-03-31T01:09:27.675Z,73.40
2019-03-31T01:11:56.903Z,73.63
2019-03-31T01:14:26.979Z,83.57
2019-03-31T01:16:56.087Z,85.67
2019-03-31T01:19:25.689Z,79.13
2019-03-31T01:21:54.289Z,83.53
2019-03-31T01:24:23.270Z,92.23
2019-03-31T01:26:52.201Z,87.37
2019-03-31T01:29:22.164Z,89.10
2019-03-31T01:31:51.469Z,95.93
2019-03-31T01:34:20.258Z,101.00
2019-03-31T01:36:48.902Z,88.73
2019-03-31T01:39:17.574Z,90.67
2019-03-31T01:41:46.305Z,90.70
2019-03-31T01:44:15.263Z,92.63
2019-03-31T01:46:43.892Z,96.67
2019-03-31T01:49:12.526Z,92.97
2019-03-31T01:51:41.199Z,98.30
2019-03-31T01:54:09.826Z,96.70
2019-03-31T01:56:38.466Z,91.40
2019-03-31T01:59:07.069Z,96.03
2019-03-31T02:01:35.869Z,94.37
2019-03-31T02:04:04.586Z,98.43
2019-03-31T02:06:33.927Z,96.20
2019-03-31T02:09:02.586Z,93.30
2019-03-31T02:11:31.424Z,95.50
2019-03-31T02:14:00.028Z,91.23
2019-03-31T02:16:29.106Z,88.57
2019-03-31T02:18:57.682Z,90.90
2019-03-31T02:21:26.262Z,98.53
2019-03-31T02:23:54.888Z,91.90
2019-03-31T02:26:23.606Z,85.23
2019-03-31T02:28:52.195Z,90.87
2019-03-31T02:31:20.859Z,96.50
2019-03-31T02:33:49.460Z,88.37
2019-03-31T02:36:18.052Z,84.63
2019-03-31T02:38:46.622Z,83.77
2019-03-31T02:41:15.254Z,80.67
2019-03-31T02:43:43.942Z,90.50
2019-03-31T02:46:12.872Z,82.43
2019-03-31T02:48:41.563Z,91.00
2019-03-31T02:51:10.197Z,84.93
2019-03-31T02:53:38.929Z,82.90
2019-03-31T02:56:08.035Z,79.87
2019-03-31T02:58:37.440Z,83.23
2019-03-31T03:01:07.051Z,76.07
2019-03-31T03:03:37.686Z,82.87
2019-03-31T03:06:08.945Z,84.53
2019-03-31T03:08:40.054Z,81.33
2019-03-31T03:11:10.848Z,82.20
2019-03-31T03:13:40.965Z,76.47
2019-03-31T03:16:15.446Z,83.33
2019-03-31T03:18:44.447Z,78.30
2019-03-31T03:21:13.183Z,80.80
2019-03-31T03:23:41.883Z,84.93
2019-03-31T03:26:10.668Z,80.70
2019-03-31T03:28:39.228Z,71.27
2019-03-31T03:31:14.718Z,78.33
2019-03-31T03:33:38.088Z,77.67
2019-03-31T03:36:06.733Z,74.47
2019-03-31T03:38:35.343Z,69.70
2019-03-31T03:41:03.977Z,74.27
2019-03-31T03:43:32.991Z,75.27
2019-03-31T03:46:01.563Z,82.33
2019-03-31T03:48:30.222Z,77.40
2019-03-31T03:50:58.797Z,80.40
2019-03-31T03:53:27.511Z,80.83
2019-03-31T03:55:56.304Z,82.27
2019-03-31T03:58:24.898Z,74.37
2019-03-31T04:00:53.520Z,80.80
2019-03-31T04:03:30.355Z,73.93
2019-03-31T04:05:52.678Z,83.13
2019-03-31T04:08:21.210Z,73.97
2019-03-31T04:10:52.855Z,77.43
2019-03-31T04:13:21.427Z,75.17
2019-03-31T04:15:50.111Z,77.57
2019-03-31T04:18:18.697Z,78.40
2019-03-31T04:20:47.420Z,79.13
2019-03-31T04:23:15.975Z,78.17
2019-03-31T04:25:44.550Z,76.07
2019-03-31T04:28:13.147Z,75.87
2019-03-31T04:30:41.712Z,78.37
2019-03-31T04:33:10.316Z,75.53
2019-03-31T04:35:38.955Z,71.67
2019-03-31T04:38:07.617Z,75.57
2019-03-31T04:40:36.212Z,77.97
2019-03-31T04:43:04.879Z,82.33
2019-03-31T04:45:33.764Z,70.23
2019-03-31T04:48:02.421Z,78.57
2019-03-31T04:50:30.981Z,80.03
2019-03-31T04:52:59.814Z,77.87
2019-03-31T04:55:28.474Z,71.90
2019-03-31T04:57:57.107Z,77.37
2019-03-31T05:00:25.831Z,73.03
2019-03-31T05:02:54.452Z,72.47
2019-03-31T05:05:23.043Z,73.20
2019-03-31T05:07:51.642Z,74.93
2019-03-31T05:10:20.599Z,74.07
2019-03-31T05:12:49.122Z,68.07
2019-03-31T05:15:17.758Z,70.43
2019-03-31T05:17:46.366Z,72.03
2019-03-31T05:20:15.081Z,70.40
2019-03-31T05:22:43.657Z,67.17
2019-03-31T05:25:12.701Z,72.50
2019-03-31T05:27:41.289Z,73.70
2019-03-31T05:30:10.527Z,69.83
2019-03-31T05:32:39.120Z,69.37
2019-03-31T05:35:08.557Z,70.37
2019-03-31T05:37:50.292Z,71.93
2019-03-31T05:40:07.536Z,66.63
2019-03-31T05:42:36.276Z,72.33
2019-03-31T05:45:06.684Z,75.27
2019-03-31T05:47:35.225Z,65.63
2019-03-31T05:50:05.858Z,86.27
2019-03-31T05:52:34.671Z,74.83
2019-03-31T05:55:04.898Z,82.77
2019-03-31T05:57:33.503Z,73.87
2019-03-31T06:00:02.138Z,65.67
2019-03-31T06:02:30.834Z,64.93
2019-03-31T06:04:59.472Z,69.47
2019-03-31T06:07:28.067Z,68.00
2019-03-31T06:09:56.748Z,62.40
2019-03-31T06:12:25.370Z,63.77
2019-03-31T06:14:54.006Z,65.63
2019-03-31T06:17:22.566Z,65.33
2019-03-31T06:19:51.419Z,67.77
2019-03-31T06:22:20.058Z,66.00
2019-03-31T06:24:48.641Z,66.63
2019-03-31T06:27:17.279Z,63.87
2019-03-31T06:29:45.916Z,65.03
2019-03-31T06:32:14.835Z,61.17
2019-03-31T06:34:47.755Z,61.30
2019-03-31T06:37:13.654Z,63.00
2019-03-31T06:39:42.245Z,59.17
2019-03-31T06:42:11.106Z,59.47
2019-03-31T06:44:39.781Z,53.80
2019-03-31T06:47:10.355Z,58.63
2019-03-31T06:49:38.763Z,60.83
2019-03-31T06:52:07.431Z,56.57
2019-03-31T06:54:36.021Z,56.63
2019-03-31T06:57:04.743Z,49.27
2019-03-31T06:59:33.370Z,55.93
2019-03-31T07:02:03.342Z,57.50
2019-03-31T07:04:32.180Z,54.07
2019-03-31T07:07:00.845Z,55.53
2019-03-31T07:09:29.527Z,45.60
2019-03-31T07:11:58.114Z,50.63
2019-03-31T07:14:26.753Z,96.30
2019-03-31T07:16:55.325Z,47.93
2019-03-31T07:19:23.931Z,48.87
2019-03-31T07:21:52.710Z,42.83
2019-03-31T07:24:25.174Z,40.93
2019-03-31T07:26:53.729Z,42.55
2019-03-31T07:29:22.544Z,43.00
2019-03-31T07:31:51.227Z,39.13
2019-03-31T07:34:19.776Z,37.13
2019-03-31T07:36:48.403Z,35.57
2019-03-31T07:39:17.348Z,34.30
2019-03-31T07:41:46.277Z,37.13
2019-03-31T07:44:15.445Z,40.00
2019-03-31T07:46:45.323Z,31.97
2019-03-31T07:49:13.895Z,31.50
2019-03-31T07:51:42.530Z,23.17
2019-03-31T07:54:11.196Z,23.93
2019-03-31T07:56:39.865Z,21.20
2019-03-31T07:59:09.860Z,22.03
2019-03-31T08:01:38.533Z,16.20
2019-03-31T08:04:07.195Z,16.87
2019-03-31T08:06:36.173Z,21.73
2019-03-31T08:09:06.876Z,20.50
2019-03-31T08:11:35.538Z,18.13
2019-03-31T08:14:04.586Z,13.20
2019-03-31T08:16:33.553Z,12.37
2019-03-31T08:19:02.204Z,15.60
2019-03-31T08:21:32.663Z,15.90
2019-03-31T08:24:01.557Z,17.03
2019-03-31T08:26:30.225Z,13.30
2019-03-31T08:28:58.882Z,15.83
2019-03-31T08:31:27.921Z,15.47
2019-03-31T08:33:56.530Z,14.63
2019-03-31T08:36:25.323Z,13.30
2019-03-31T08:38:53.878Z,17.27
2019-03-31T08:41:22.626Z,15.67
2019-03-31T08:43:51.201Z,22.23
2019-03-31T08:46:19.892Z,16.60
2019-03-31T08:48:48.550Z,17.30
2019-03-31T08:51:17.169Z,16.87
2019-03-31T08:53:45.806Z,14.20
2019-03-31T08:56:14.766Z,17.27
2019-03-31T08:58:43.754Z,19.07
2019-03-31T09:01:16.644Z,15.83
2019-03-31T09:03:45.302Z,16.60
2019-03-31T09:06:14.084Z,13.73
2019-03-31T09:08:44.863Z,10.30
2019-03-31T09:11:14.000Z,9.37
2019-03-31T09:13:42.663Z,8.68
2019-03-31T09:16:11.362Z,5.37
2019-03-31T09:18:40.063Z,4.97
2019-03-31T09:21:08.720Z,6.15
2019-03-31T09:23:37.407Z,9.33
2019-03-31T09:26:06.012Z,5.47
2019-03-31T09:28:34.686Z,9.53
2019-03-31T09:31:03.355Z,16.65
2019-03-31T09:33:32.014Z,10.05
2019-03-31T09:36:15.140Z,12.93
2019-03-31T09:38:30.881Z,9.35
2019-03-31T09:40:59.625Z,12.63
2019-03-31T09:43:28.329Z,10.05
2019-03-31T09:45:57.086Z,11.55
2019-03-31T09:48:25.801Z,10.70
2019-03-31T09:50:56.543Z,11.97
2019-03-31T09:53:24.771Z,9.15
2019-03-31T09:55:53.614Z,8.58
2019-03-31T09:58:22.272Z,13.72
2019-03-31T10:00:53.086Z,16.07
2019-03-31T10:03:22.093Z,15.83
2019-03-31T10:05:51.126Z,19.80
2019-03-31T10:08:21.947Z,14.23
2019-03-31T10:10:50.946Z,11.57
2019-03-31T10:13:19.695Z,5.15
2019-03-31T10:15:49.789Z,7.20
2019-03-31T10:18:18.576Z,4.08
2019-03-31T10:20:47.591Z,7.17
2019-03-31T10:23:16.239Z,8.03
2019-03-31T10:25:44.912Z,6.50
2019-03-31T10:28:13.874Z,5.33
2019-03-31T10:30:42.615Z,5.90
2019-03-31T10:33:11.312Z,8.53
2019-03-31T10:35:39.951Z,11.90
2019-03-31T10:38:09.214Z,9.03
2019-03-31T10:40:37.858Z,7.80
2019-03-31T10:43:06.584Z,6.22
2019-03-31T10:45:35.208Z,5.77
2019-03-31T10:48:04.060Z,9.90
2019-03-31T10:50:32.710Z,8.97
2019-03-31T10:53:01.627Z,6.63
2019-03-31T10:55:30.263Z,9.23
2019-03-31T10:57:58.904Z,8.27
2019-03-31T11:00:36.139Z,6.17
2019-03-31T11:03:06.380Z,10.03
2019-03-31T11:05:35.089Z,7.67
2019-03-31T11:08:04.633Z,9.47
2019-03-31T11:10:33.298Z,12.90
2019-03-31T11:13:01.981Z,9.40
2019-03-31T11:15:30.602Z,7.50
2019-03-31T11:17:59.183Z,12.03
2019-03-31T11:20:27.938Z,6.57
2019-03-31T11:23:07.366Z,4.13
2019-03-31T11:25:36.057Z,5.90
2019-03-31T11:28:04.786Z,4.95
2019-03-31T11:30:33.384Z,9.55
2019-03-31T11:33:02.084Z,10.55
2019-03-31T11:35:30.826Z,8.88
2019-03-31T11:37:59.652Z,5.95
2019-03-31T11:40:28.234Z,5.95
2019-03-31T11:42:56.881Z,5.65
2019-03-31T11:45:25.737Z,4.95
2019-03-31T11:47:54.336Z,8.38
2019-03-31T11:50:23.042Z,6.80
2019-03-31T11:52:51.677Z,6.87
2019-03-31T11:55:20.348Z,6.08
2019-03-31T11:57:48.979Z,13.62
2019-03-31T12:00:19.677Z,21.35
2019-03-31T12:02:48.495Z,6.03
2019-03-31T12:05:17.254Z,11.30
2019-03-31T12:07:47.667Z,12.30
2019-03-31T12:10:19.692Z,10.20
2019-03-31T12:12:46.983Z,7.73
2019-03-31T12:15:17.182Z,8.63
2019-03-31T12:17:45.843Z,6.30
2019-03-31T12:20:14.656Z,18.73
2019-03-31T12:22:43.336Z,14.47
2019-03-31T12:25:12.398Z,6.85
2019-03-31T12:27:41.115Z,6.37
2019-03-31T12:30:10.524Z,15.25
2019-03-31T12:32:39.250Z,9.08
2019-03-31T12:35:10.041Z,10.30
2019-03-31T12:37:42.771Z,9.68
2019-03-31T12:40:15.202Z,11.70
2019-03-31T12:42:42.309Z,9.65
2019-03-31T12:45:11.419Z,10.63
2019-03-31T12:47:41.851Z,12.13
2019-03-31T12:50:10.752Z,13.38
2019-03-31T12:52:46.598Z,6.15
2019-03-31T12:55:09.798Z,7.05
2019-03-31T12:57:38.810Z,3.90
2019-03-31T13:00:08.883Z,16.93
2019-03-31T13:02:37.526Z,9.38
2019-03-31T13:05:08.939Z,7.70
2019-03-31T13:07:37.522Z,7.28
2019-03-31T13:10:06.486Z,8.80
2019-03-31T13:12:36.861Z,5.47
2019-03-31T13:15:08.683Z,7.65
2019-03-31T13:17:37.243Z,5.70
2019-03-31T13:20:07.708Z,5.35
2019-03-31T13:22:36.401Z,4.37
2019-03-31T13:25:08.833Z,7.35
2019-03-31T13:27:37.530Z,5.90
2019-03-31T13:30:08.228Z,6.53
2019-03-31T13:32:36.906Z,6.03
2019-03-31T13:35:08.614Z,7.55
2019-03-31T13:37:37.355Z,8.90
2019-03-31T13:40:07.581Z,10.03
2019-03-31T13:42:36.309Z,9.70
2019-03-31T13:45:08.454Z,7.37
2019-03-31T13:47:37.060Z,13.60
2019-03-31T13:50:07.893Z,5.65
2019-03-31T13:52:38.447Z,5.72
2019-03-31T13:55:10.066Z,8.18
2019-03-31T13:57:44.324Z,5.37
2019-03-31T14:00:15.392Z,10.00
2019-03-31T14:02:44.182Z,6.83
2019-03-31T14:05:13.095Z,17.82
2019-03-31T14:07:41.886Z,8.38
2019-03-31T14:10:10.684Z,7.25
2019-03-31T14:12:39.552Z,8.58
2019-03-31T14:15:19.006Z,10.98
2019-03-31T14:17:40.089Z,6.67
2019-03-31T14:20:09.313Z,5.17
2019-03-31T14:22:38.030Z,8.50
2019-03-31T14:25:07.363Z,5.92
2019-03-31T14:27:35.975Z,15.38
2019-03-31T14:30:06.939Z,10.43
2019-03-31T14:32:35.619Z,13.65
2019-03-31T14:35:05.545Z,5.37
2019-03-31T14:37:34.333Z,7.70
2019-03-31T14:40:03.366Z,12.17
2019-03-31T14:42:32.019Z,5.93
2019-03-31T14:45:00.687Z,10.90
2019-03-31T14:47:29.382Z,8.47
2019-03-31T14:49:58.096Z,8.00
2019-03-31T14:52:27.974Z,6.87
2019-03-31T14:54:56.910Z,6.07
2019-03-31T14:57:25.565Z,6.17
2019-03-31T14:59:54.251Z,3.40
2019-03-31T15:02:22.814Z,4.03
2019-03-31T15:04:51.487Z,3.07
2019-03-31T15:07:20.087Z,4.80
2019-03-31T15:09:49.108Z,3.77
2019-03-31T15:12:20.421Z,4.67
2019-03-31T15:14:49.189Z,6.73
2019-03-31T15:17:18.004Z,4.47
2019-03-31T15:19:46.561Z,11.17
2019-03-31T15:22:16.986Z,6.10
2019-03-31T15:24:45.820Z,8.97
2019-03-31T15:27:14.384Z,4.70
2019-03-31T15:29:45.730Z,12.57
2019-03-31T15:32:14.487Z,7.23
2019-03-31T15:34:49.837Z,5.40
2019-03-31T15:37:19.410Z,6.23
2019-03-31T15:39:48.360Z,6.47
2019-03-31T15:42:17.008Z,12.00
2019-03-31T15:44:45.591Z,5.40
2019-03-31T15:47:14.531Z,9.53
2019-03-31T15:49:43.266Z,9.33
2019-03-31T15:52:11.928Z,14.87
2019-03-31T15:54:40.584Z,8.13
2019-03-31T15:57:09.813Z,4.53
2019-03-31T15:59:41.943Z,6.93
2019-03-31T16:02:10.572Z,4.35
2019-03-31T16:04:39.224Z,9.00
2019-03-31T16:07:08.166Z,4.30
2019-03-31T16:09:36.863Z,7.03
2019-03-31T16:12:05.739Z,5.53
2019-03-31T16:14:34.468Z,7.40
2019-03-31T16:17:04.546Z,6.23
2019-03-31T16:19:33.433Z,7.97
2019-03-31T16:22:02.165Z,9.60
2019-03-31T16:24:35.466Z,8.03
2019-03-31T16:27:04.271Z,5.83
2019-03-31T16:29:33.046Z,7.60
2019-03-31T16:32:02.674Z,7.97
2019-03-31T16:34:32.788Z,5.80
2019-03-31T16:37:01.692Z,6.77
2019-03-31T16:39:37.601Z,5.43
2019-03-31T16:42:00.964Z,6.93
2019-03-31T16:44:29.534Z,6.87
2019-03-31T16:46:58.227Z,9.77
2019-03-31T16:49:29.693Z,10.80
2019-03-31T16:51:58.383Z,9.23
2019-03-31T16:54:27.055Z,8.90
2019-03-31T16:56:55.758Z,9.70
2019-03-31T16:59:24.595Z,14.57
2019-03-31T17:01:53.330Z,10.93
2019-03-31T17:04:22.023Z,5.73
2019-03-31T17:06:50.672Z,8.60
2019-03-31T17:09:21.128Z,6.77
2019-03-31T17:11:51.542Z,5.40
2019-03-31T17:14:20.400Z,7.37
2019-03-31T17:16:49.476Z,5.17
2019-03-31T17:19:18.424Z,6.30
2019-03-31T17:21:48.727Z,8.03
2019-03-31T17:24:21.726Z,6.87
2019-03-31T17:27:07.892Z,21.13
2019-03-31T17:29:44.529Z,9.13
2019-03-31T17:32:12.885Z,11.83
2019-03-31T17:34:41.534Z,8.10
2019-03-31T17:37:10.548Z,7.53
2019-03-31T17:39:39.315Z,8.80
2019-03-31T17:42:08.071Z,5.93
2019-03-31T17:44:36.861Z,5.63
2019-03-31T17:47:05.892Z,6.77
2019-03-31T17:49:34.493Z,10.80
2019-03-31T17:52:03.565Z,4.80
2019-03-31T17:54:32.177Z,5.43
2019-03-31T17:57:00.799Z,6.47
2019-03-31T17:59:29.496Z,7.50
2019-03-31T18:01:58.302Z,11.27
2019-03-31T18:04:27.036Z,4.80
2019-03-31T18:06:55.898Z,5.63
2019-03-31T18:09:24.498Z,7.57
2019-03-31T18:11:53.346Z,10.30
2019-03-31T18:14:22.039Z,6.80
2019-03-31T18:16:50.709Z,3.47
2019-03-31T18:19:19.314Z,7.87
2019-03-31T18:21:47.974Z,8.87
2019-03-31T18:24:18.427Z,11.70
2019-03-31T18:26:47.130Z,5.73
2019-03-31T18:29:15.718Z,10.17
2019-03-31T18:31:44.421Z,15.23
2019-03-31T18:34:13.650Z,9.83
2019-03-31T18:36:42.307Z,11.97
2019-03-31T18:39:10.983Z,9.93
2019-03-31T18:41:39.699Z,15.13
2019-03-31T18:44:08.683Z,12.63
2019-03-31T18:46:37.262Z,11.37
2019-03-31T18:49:05.956Z,9.53
2019-03-31T18:51:34.735Z,13.03
2019-03-31T18:54:20.373Z,7.60
2019-03-31T18:56:50.634Z,9.47
2019-03-31T18:59:36.106Z,9.87
2019-03-31T19:02:10.023Z,7.63
2019-03-31T19:04:55.306Z,10.33
2019-03-31T19:07:42.099Z,12.97
2019-03-31T19:10:24.472Z,9.17
2019-03-31T19:12:51.201Z,7.03
2019-03-31T19:17:56.597Z,8.50
2019-03-31T19:20:31.422Z,6.97
2019-03-31T19:23:13.829Z,8.10
2019-03-31T19:25:47.116Z,11.68
2019-03-31T19:28:19.987Z,11.20
2019-03-31T19:30:52.644Z,5.77
2019-03-31T19:33:39.177Z,7.50
2019-03-31T19:36:12.117Z,11.40
2019-03-31T19:38:42.398Z,12.97
2019-03-31T19:41:18.654Z,6.53
2019-03-31T19:43:49.063Z,8.97
2019-03-31T19:46:27.893Z,6.37
2019-03-31T19:49:03.941Z,6.53
2019-03-31T19:51:34.194Z,9.20
2019-03-31T19:54:04.557Z,12.47
2019-03-31T19:56:34.847Z,15.13
2019-03-31T19:59:13.651Z,9.90
2019-03-31T20:02:02.097Z,12.67
2019-03-31T20:04:46.206Z,14.53
2019-03-31T20:07:22.537Z,14.83
2019-03-31T20:10:08.018Z,22.10
2019-03-31T20:12:38.328Z,17.87
2019-03-31T20:15:27.749Z,20.23
2019-03-31T20:18:14.458Z,11.33
2019-03-31T20:21:00.020Z,10.77
2019-03-31T20:23:45.382Z,10.07
2019-03-31T20:26:21.301Z,8.73
2019-03-31T20:29:07.940Z,7.27
2019-03-31T20:31:56.414Z,8.83
2019-03-31T20:34:26.704Z,6.17
2019-03-31T20:37:14.882Z,5.27
2019-03-31T20:39:56.079Z,5.77
2019-03-31T20:42:35.351Z,4.45
2019-03-31T20:45:06.045Z,8.17
2019-03-31T20:47:34.897Z,3.63
2019-03-31T20:50:05.307Z,16.87
2019-03-31T20:52:33.892Z,8.17
2019-03-31T20:55:15.685Z,4.43
2019-03-31T20:57:32.778Z,5.77
2019-03-31T21:00:01.397Z,9.17
2019-03-31T21:02:29.966Z,6.03
2019-03-31T21:04:58.538Z,5.17
2019-03-31T21:07:27.141Z,7.60
2019-03-31T21:09:55.781Z,2.30
2019-03-31T21:12:24.496Z,7.47
2019-03-31T21:14:53.121Z,9.37
2019-03-31T21:17:22.118Z,4.07
2019-03-31T21:19:50.703Z,5.93
2019-03-31T21:22:19.269Z,5.67
2019-03-31T21:24:47.848Z,5.30
2019-03-31T21:27:16.515Z,9.00
2019-03-31T21:29:45.111Z,6.57
2019-03-31T21:32:13.964Z,4.57
2019-03-31T21:34:42.515Z,6.70
2019-03-31T21:37:11.079Z,5.03
2019-03-31T21:39:39.672Z,5.67
2019-03-31T21:42:08.224Z,5.37
2019-03-31T21:44:36.811Z,4.17
2019-03-31T21:47:05.446Z,6.87
2019-03-31T21:49:34.441Z,7.77
2019-03-31T21:52:03.088Z,7.47
2019-03-31T21:54:31.669Z,3.83
2019-03-31T21:57:00.262Z,6.27
2019-03-31T21:59:28.833Z,4.63
2019-03-31T22:01:57.576Z,10.57
2019-03-31T22:04:26.141Z,4.00
2019-03-31T22:06:54.919Z,5.17
2019-03-31T22:09:23.507Z,2.07
2019-03-31T22:11:52.089Z,4.57
2019-03-31T22:14:20.673Z,6.10
2019-03-31T22:16:49.342Z,3.33
2019-03-31T22:19:18.026Z,7.37
2019-03-31T22:21:46.567Z,4.90
2019-03-31T22:24:15.394Z,3.30
2019-03-31T22:26:43.982Z,2.53
2019-03-31T22:29:12.762Z,4.37
2019-03-31T22:31:41.346Z,5.87
2019-03-31T22:34:09.918Z,4.97
2019-03-31T22:36:38.807Z,2.80
2019-03-31T22:39:08.072Z,6.10
2019-03-31T22:41:36.717Z,3.60
2019-03-31T22:44:05.862Z,1.50
2019-03-31T22:46:34.409Z,6.07
2019-03-31T22:49:02.974Z,5.40
2019-03-31T22:51:31.639Z,1.73
2019-03-31T22:54:00.193Z,4.90
2019-03-31T22:56:28.800Z,6.20
2019-03-31T22:58:57.383Z,4.30
2019-03-31T23:01:26.109Z,3.47
2019-03-31T23:03:54.673Z,2.60
2019-03-31T23:06:23.262Z,4.90
2019-03-31T23:08:52.002Z,4.70
2019-03-31T23:11:20.995Z,4.90
2019-03-31T23:13:49.554Z,1.97
2019-03-31T23:16:18.361Z,3.03
2019-03-31T23:18:47.377Z,1.93
2019-03-31T23:21:16.005Z,5.47
2019-03-31T23:23:44.787Z,2.63
2019-03-31T23:26:13.474Z,5.70
2019-03-31T23:28:47.800Z,1.60
2019-03-31T23:31:17.249Z,3.27
2019-03-31T23:33:45.986Z,4.40
2019-03-31T23:36:14.726Z,7.70
2019-03-31T23:38:43.362Z,4.40
2019-03-31T23:41:11.925Z,5.17
2019-03-31T23:43:40.626Z,4.87
2019-03-31T23:46:09.215Z,3.50
2019-03-31T23:48:37.870Z,3.83
2019-03-31T23:51:06.494Z,3.97
2019-03-31T23:53:35.089Z,2.83
2019-03-31T23:56:03.679Z,4.13
2019-03-31T23:58:32.537Z,2.53
